TimeEDT,TemperatureF,Dew PointF,Humidity,Sea Level PressureIn,VisibilityMPH,Wind Direction,Wind SpeedMPH,Gust SpeedMPH,PrecipitationIn,Events,Conditions,WindDirDegrees,DateUTC
12:53 AM,75.0,73.0,94,30.05,10.0,Calm,Calm,-,N/A,,Clear,0,2013-08-17 04:53:00
1:53 AM,75.9,73.0,91,30.04,10.0,South,4.6,-,N/A,,Overcast,180,2013-08-17 05:53:00
2:53 AM,77.0,73.0,88,30.04,10.0,South,6.9,-,N/A,,Overcast,190,2013-08-17 06:53:00
3:53 AM,77.0,73.0,88,30.04,10.0,SW,4.6,-,0.00,,Overcast,230,2013-08-17 07:53:00
4:53 AM,77.0,73.0,88,30.03,10.0,Calm,Calm,-,N/A,,Partly Cloudy,0,2013-08-17 08:53:00
5:53 AM,75.9,73.9,94,30.03,10.0,Calm,Calm,-,N/A,,Partly Cloudy,0,2013-08-17 09:53:00
6:53 AM,75.9,73.0,91,30.05,10.0,North,-9999.0,-,N/A,,Mostly Cloudy,0,2013-08-17 10:53:00
7:53 AM,75.9,73.9,94,30.08,10.0,West,4.6,-,N/A,,Partly Cloudy,270,2013-08-17 11:53:00
8:53 AM,78.1,73.9,87,30.08,10.0,WNW,3.5,-,N/A,,Mostly Cloudy,290,2013-08-17 12:53:00
9:53 AM,81.0,73.0,77,30.09,10.0,West,4.6,-,N/A,,Overcast,280,2013-08-17 13:53:00
10:53 AM,82.0,72.0,71,30.10,10.0,NNW,3.5,-,N/A,,Overcast,330,2013-08-17 14:53:00
11:53 AM,84.0,72.0,67,30.10,10.0,SW,5.8,-,N/A,,Mostly Cloudy,230,2013-08-17 15:53:00
12:53 PM,82.9,73.9,74,30.09,10.0,East,6.9,-,0.00,,Clear,100,2013-08-17 16:53:00
1:37 PM,80.6,73.4,79,30.09,10.0,East,8.1,-,0.00,Rain-Thunderstorm,Light Rain,90,2013-08-17 17:37:00
1:53 PM,81.0,73.0,77,30.08,10.0,ESE,8.1,-,0.00,Thunderstorm,Scattered Clouds,120,2013-08-17 17:53:00
2:18 PM,80.6,73.4,79,30.09,6.0,East,5.8,-,0.02,Rain-Thunderstorm,Light Rain,100,2013-08-17 18:18:00
2:37 PM,82.4,75.2,79,30.08,10.0,ESE,8.1,-,0.02,,Mostly Cloudy,110,2013-08-17 18:37:00
2:51 PM,82.4,75.2,79,30.08,10.0,ESE,8.1,-,0.02,,Scattered Clouds,110,2013-08-17 18:51:00
2:53 PM,82.9,75.0,77,30.08,10.0,East,9.2,-,0.02,,Scattered Clouds,90,2013-08-17 18:53:00
3:53 PM,82.9,73.9,74,30.06,10.0,ESE,8.1,-,N/A,,Clear,110,2013-08-17 19:53:00
4:53 PM,82.9,73.0,72,30.05,10.0,East,9.2,-,N/A,,Clear,100,2013-08-17 20:53:00
5:53 PM,81.0,73.0,77,30.05,10.0,East,6.9,-,N/A,,Clear,100,2013-08-17 21:53:00
6:53 PM,81.0,73.9,79,30.06,10.0,East,9.2,-,N/A,,Clear,90,2013-08-17 22:53:00
7:53 PM,81.0,75.0,82,30.09,10.0,ESE,8.1,-,N/A,,Partly Cloudy,120,2013-08-17 23:53:00
8:53 PM,81.0,75.0,82,30.11,10.0,ESE,6.9,-,N/A,,Scattered Clouds,120,2013-08-18 00:53:00
9:53 PM,82.0,77.0,85,30.12,10.0,SE,10.4,19.6,N/A,,Overcast,130,2013-08-18 01:53:00
10:10 PM,82.4,75.2,79,30.12,10.0,SE,10.4,-,N/A,,Overcast,140,2013-08-18 02:10:00
10:23 PM,82.4,75.2,79,30.12,9.0,South,9.2,-,0.01,Rain,Light Rain,170,2013-08-18 02:23:00
10:50 PM,80.6,77.0,89,30.12,4.0,South,4.6,-,0.08,Rain,Heavy Rain,190,2013-08-18 02:50:00
10:53 PM,80.1,77.0,90,30.13,4.0,SW,5.8,-,0.09,Rain,Rain,220,2013-08-18 02:53:00
11:18 PM,73.4,71.6,94,30.14,10.0,NW,8.1,-,0.02,Thunderstorm,Overcast,320,2013-08-18 03:18:00
11:38 PM,73.4,73.4,100,30.13,10.0,NW,5.8,-,0.02,Thunderstorm,Mostly Cloudy,310,2013-08-18 03:38:00
11:53 PM,73.9,73.0,97,30.13,10.0,NNW,5.8,-,0.02,,Partly Cloudy,340,2013-08-18 03:53:00